createdAt,value
2019-05-11T00:00:16.264Z,13.45
2019-05-11T00:00:52.704Z,13.46
2019-05-11T00:01:28.658Z,13.46
2019-05-11T00:02:04.637Z,13.40
2019-05-11T00:02:40.297Z,13.35
2019-05-11T00:03:15.905Z,13.45
2019-05-11T00:03:52.220Z,13.49
2019-05-11T00:04:28.905Z,13.50
2019-05-11T00:05:04.922Z,13.46
2019-05-11T00:05:40.573Z,13.46
2019-05-11T00:06:16.602Z,13.45
2019-05-11T00:06:52.308Z,13.39
2019-05-11T00:07:28.327Z,13.38
2019-05-11T00:08:04.249Z,13.33
2019-05-11T00:08:39.773Z,13.27
2019-05-11T00:09:15.381Z,13.43
2019-05-11T00:09:57.992Z,13.44
2019-05-11T00:10:29.234Z,13.46
2019-05-11T00:11:04.680Z,13.39
2019-05-11T00:11:40.343Z,13.34
2019-05-11T00:12:16.267Z,13.32
2019-05-11T00:12:53.350Z,13.29
2019-05-11T00:13:28.815Z,13.23
2019-05-11T00:14:05.118Z,13.20
2019-05-11T00:14:41.082Z,13.21
2019-05-11T00:15:16.717Z,13.19
2019-05-11T00:15:53.170Z,13.26
2019-05-11T00:16:28.816Z,13.20
2019-05-11T00:17:05.123Z,13.18
2019-05-11T00:17:41.242Z,13.19
2019-05-11T00:18:17.924Z,13.18
2019-05-11T00:18:53.770Z,13.16
2019-05-11T00:19:29.683Z,13.15
2019-05-11T00:20:05.469Z,13.25
2019-05-11T00:20:41.921Z,13.36
2019-05-11T00:21:18.588Z,13.39
2019-05-11T00:21:54.627Z,13.35
2019-05-11T00:22:31.625Z,13.36
2019-05-11T00:23:07.302Z,13.30
2019-05-11T00:23:43.245Z,13.25
2019-05-11T00:24:19.815Z,13.24
2019-05-11T00:24:55.896Z,13.22
2019-05-11T00:25:32.102Z,13.19
2019-05-11T00:26:08.053Z,13.15
2019-05-11T00:26:43.695Z,13.10
2019-05-11T00:27:20.009Z,13.12
2019-05-11T00:27:55.895Z,13.10
2019-05-11T00:28:32.821Z,13.06
2019-05-11T00:29:08.440Z,13.04
2019-05-11T00:29:44.354Z,13.07
2019-05-11T00:30:20.069Z,13.07
2019-05-11T00:30:56.406Z,13.21
2019-05-11T00:31:33.009Z,13.16
2019-05-11T00:32:09.232Z,13.17
2019-05-11T00:32:44.728Z,13.12
2019-05-11T00:33:20.480Z,13.14
2019-05-11T00:33:56.821Z,13.12
2019-05-11T00:34:32.514Z,13.09
2019-05-11T00:35:08.742Z,13.05
2019-05-11T00:35:44.979Z,13.03
2019-05-11T00:36:21.309Z,13.05
2019-05-11T00:36:57.138Z,13.02
2019-05-11T00:37:32.965Z,12.99
2019-05-11T00:38:08.964Z,12.99
2019-05-11T00:38:45.005Z,12.92
2019-05-11T00:39:20.704Z,12.86
2019-05-11T00:39:56.223Z,12.85
2019-05-11T00:40:31.897Z,12.86
2019-05-11T00:41:07.528Z,12.65
2019-05-11T00:41:43.810Z,12.94
2019-05-11T00:42:19.955Z,12.90
2019-05-11T00:42:55.632Z,12.91
2019-05-11T00:43:31.371Z,12.88
2019-05-11T00:44:07.458Z,12.89
2019-05-11T00:44:42.870Z,12.89
2019-05-11T00:45:18.534Z,12.88
2019-05-11T00:45:54.237Z,12.86
2019-05-11T00:46:29.860Z,12.85
2019-05-11T00:47:05.317Z,12.82
2019-05-11T00:47:41.285Z,12.83
2019-05-11T00:48:17.515Z,12.83
2019-05-11T00:48:53.620Z,12.82
2019-05-11T00:49:29.485Z,12.84
2019-05-11T00:50:06.593Z,12.82
2019-05-11T00:50:42.394Z,12.83
2019-05-11T00:51:18.113Z,12.85
2019-05-11T00:51:54.758Z,12.84
2019-05-11T00:52:30.804Z,12.81
2019-05-11T00:53:06.431Z,12.84
2019-05-11T00:53:42.069Z,12.85
2019-05-11T00:54:18.120Z,12.80
2019-05-11T00:54:55.019Z,12.81
2019-05-11T00:55:31.340Z,12.80
2019-05-11T00:56:07.560Z,12.83
2019-05-11T00:56:43.115Z,12.81
2019-05-11T00:57:19.083Z,12.78
2019-05-11T00:57:55.214Z,12.79
2019-05-11T00:58:30.890Z,12.76
2019-05-11T00:59:19.860Z,12.73
2019-05-11T00:59:43.992Z,12.71
2019-05-11T01:00:20.161Z,12.70
2019-05-11T01:00:56.424Z,12.68
2019-05-11T01:01:32.755Z,12.68
2019-05-11T01:02:08.973Z,12.71
2019-05-11T01:02:44.602Z,12.72
2019-05-11T01:03:20.891Z,12.71
2019-05-11T01:03:57.118Z,12.68
2019-05-11T01:04:32.820Z,12.67
2019-05-11T01:05:08.653Z,12.67
2019-05-11T01:05:45.199Z,12.65
2019-05-11T01:06:21.663Z,12.63
2019-05-11T01:06:57.554Z,12.38
2019-05-11T01:07:33.201Z,12.61
2019-05-11T01:08:08.846Z,12.60
2019-05-11T01:08:44.905Z,12.52
2019-05-11T01:09:22.486Z,12.58
2019-05-11T01:09:58.123Z,12.60
2019-05-11T01:10:41.595Z,12.64
2019-05-11T01:11:11.402Z,12.70
2019-05-11T01:11:47.456Z,12.70
2019-05-11T01:12:23.139Z,12.67
2019-05-11T01:12:59.263Z,12.66
2019-05-11T01:13:34.805Z,12.64
2019-05-11T01:14:10.770Z,12.73
2019-05-11T01:14:46.425Z,12.68
2019-05-11T01:15:22.295Z,12.68
2019-05-11T01:15:58.200Z,12.74
2019-05-11T01:16:34.148Z,12.67
2019-05-11T01:17:10.711Z,12.76
2019-05-11T01:17:46.331Z,12.71
2019-05-11T01:18:22.317Z,12.71
2019-05-11T01:18:58.488Z,12.72
2019-05-11T01:19:35.004Z,12.81
2019-05-11T01:20:10.848Z,12.78
2019-05-11T01:20:46.284Z,12.72
2019-05-11T01:21:22.449Z,12.69
2019-05-11T01:21:58.122Z,12.67
2019-05-11T01:22:33.857Z,12.73
2019-05-11T01:23:09.275Z,12.71
2019-05-11T01:23:44.973Z,12.66
2019-05-11T01:24:20.987Z,12.60
2019-05-11T01:24:57.894Z,12.56
2019-05-11T01:25:33.370Z,12.51
2019-05-11T01:26:09.403Z,12.48
2019-05-11T01:26:45.031Z,12.50
2019-05-11T01:27:20.751Z,12.50
2019-05-11T01:27:56.283Z,12.54
2019-05-11T01:28:32.254Z,12.57
2019-05-11T01:29:07.881Z,12.56
2019-05-11T01:29:43.494Z,12.55
2019-05-11T01:30:19.259Z,12.51
2019-05-11T01:30:55.030Z,12.52
2019-05-11T01:31:31.113Z,12.52
2019-05-11T01:32:06.741Z,12.48
2019-05-11T01:32:42.201Z,12.51
2019-05-11T01:33:18.326Z,12.50
2019-05-11T01:33:54.371Z,12.46
2019-05-11T01:34:30.065Z,12.43
2019-05-11T01:35:05.846Z,12.47
2019-05-11T01:35:41.472Z,12.47
2019-05-11T01:36:17.244Z,12.47
2019-05-11T01:36:53.432Z,12.51
2019-05-11T01:37:29.141Z,12.64
2019-05-11T01:38:04.807Z,12.60
2019-05-11T01:38:40.551Z,12.61
2019-05-11T01:39:17.274Z,12.63
2019-05-11T01:39:53.096Z,12.67
2019-05-11T01:40:28.739Z,12.54
2019-05-11T01:41:04.390Z,12.54
2019-05-11T01:41:40.017Z,12.49
2019-05-11T01:42:15.481Z,12.46
2019-05-11T01:42:51.144Z,12.41
2019-05-11T01:43:26.789Z,12.47
2019-05-11T01:44:02.826Z,12.44
2019-05-11T01:44:38.984Z,12.56
2019-05-11T01:45:14.805Z,12.37
2019-05-11T01:45:51.225Z,12.36
2019-05-11T01:46:26.975Z,12.36
2019-05-11T01:47:03.071Z,12.31
2019-05-11T01:47:38.696Z,12.27
2019-05-11T01:48:15.424Z,12.15
2019-05-11T01:48:51.156Z,12.15
2019-05-11T01:49:26.801Z,12.21
2019-05-11T01:50:02.457Z,12.19
2019-05-11T01:50:38.111Z,12.19
2019-05-11T01:51:13.734Z,12.16
2019-05-11T01:51:52.596Z,12.15
2019-05-11T01:52:28.252Z,11.90
2019-05-11T01:53:03.896Z,12.14
2019-05-11T01:53:39.524Z,12.15
2019-05-11T01:54:15.023Z,12.14
2019-05-11T01:54:50.762Z,12.11
2019-05-11T01:55:26.523Z,12.06
2019-05-11T01:56:02.868Z,12.06
2019-05-11T01:56:38.304Z,12.01
2019-05-11T01:57:13.948Z,12.05
2019-05-11T01:57:51.351Z,12.04
2019-05-11T01:58:26.987Z,12.08
2019-05-11T01:59:02.438Z,12.08
2019-05-11T01:59:38.673Z,12.07
2019-05-11T02:00:14.710Z,12.17
2019-05-11T02:00:50.770Z,12.17
2019-05-11T02:01:26.732Z,12.19
2019-05-11T02:02:02.794Z,12.16
2019-05-11T02:02:38.445Z,12.03
2019-05-11T02:03:14.446Z,11.97
2019-05-11T02:03:49.927Z,11.97
2019-05-11T02:04:25.984Z,11.97
2019-05-11T02:05:19.767Z,12.03
2019-05-11T02:05:55.259Z,11.89
2019-05-11T02:06:30.882Z,11.88
2019-05-11T02:07:06.575Z,11.92
2019-05-11T02:07:42.193Z,11.80
2019-05-11T02:08:17.660Z,11.83
2019-05-11T02:08:53.798Z,11.77
2019-05-11T02:09:29.430Z,11.75
2019-05-11T02:10:06.101Z,11.67
2019-05-11T02:10:41.821Z,11.67
2019-05-11T02:11:17.821Z,11.60
2019-05-11T02:11:53.496Z,11.65
2019-05-11T02:12:30.462Z,11.61
2019-05-11T02:13:06.161Z,11.61
2019-05-11T02:13:41.804Z,11.59
2019-05-11T02:14:17.420Z,11.33
2019-05-11T02:14:53.087Z,11.58
2019-05-11T02:15:28.602Z,11.55
2019-05-11T02:16:04.451Z,11.55
2019-05-11T02:16:40.410Z,11.54
2019-05-11T02:17:16.087Z,11.51
2019-05-11T02:17:51.590Z,11.54
2019-05-11T02:18:27.374Z,11.51
2019-05-11T02:19:03.064Z,11.62
2019-05-11T02:19:39.014Z,11.60
2019-05-11T02:20:14.849Z,11.59
2019-05-11T02:20:50.568Z,11.59
2019-05-11T02:21:26.242Z,11.57
2019-05-11T02:22:02.199Z,11.57
2019-05-11T02:22:37.658Z,11.54
2019-05-11T02:23:13.385Z,11.62
2019-05-11T02:23:49.756Z,11.53
2019-05-11T02:24:25.782Z,11.57
2019-05-11T02:25:01.507Z,11.56
2019-05-11T02:25:37.140Z,11.59
2019-05-11T02:26:13.288Z,11.57
2019-05-11T02:26:48.985Z,11.56
2019-05-11T02:27:24.504Z,11.53
2019-05-11T02:28:00.145Z,11.56
2019-05-11T02:28:36.260Z,11.60
2019-05-11T02:29:11.901Z,11.55
2019-05-11T02:29:47.698Z,11.49
2019-05-11T02:30:23.495Z,11.57
2019-05-11T02:30:59.570Z,11.50
2019-05-11T02:31:35.978Z,11.48
2019-05-11T02:32:11.431Z,11.49
2019-05-11T02:32:47.116Z,11.46
2019-05-11T02:33:23.168Z,11.46
2019-05-11T02:33:58.811Z,11.51
2019-05-11T02:34:34.247Z,11.48
2019-05-11T02:35:10.206Z,11.49
2019-05-11T02:35:46.506Z,11.53
2019-05-11T02:36:22.213Z,11.63
2019-05-11T02:36:57.794Z,11.66
2019-05-11T02:37:33.462Z,11.62
2019-05-11T02:38:09.463Z,11.62
2019-05-11T02:38:45.191Z,11.53
2019-05-11T02:39:20.699Z,11.52
2019-05-11T02:39:56.840Z,11.55
2019-05-11T02:40:33.163Z,11.57
2019-05-11T02:41:09.261Z,11.58
2019-05-11T02:41:44.722Z,11.58
2019-05-11T02:42:20.429Z,11.57
2019-05-11T02:42:56.119Z,11.54
2019-05-11T02:43:32.014Z,11.53
2019-05-11T02:44:07.760Z,11.51
2019-05-11T02:44:43.491Z,11.46
2019-05-11T02:45:40.686Z,11.46
2019-05-11T02:46:17.504Z,11.42
2019-05-11T02:46:53.521Z,11.42
2019-05-11T02:47:29.642Z,11.38
2019-05-11T02:48:05.302Z,11.45
2019-05-11T02:48:40.848Z,11.45
2019-05-11T02:49:16.483Z,11.40
2019-05-11T02:49:52.302Z,11.46
2019-05-11T02:50:28.315Z,11.44
2019-05-11T02:51:04.073Z,11.48
2019-05-11T02:51:40.469Z,11.49
2019-05-11T02:52:17.110Z,11.44
2019-05-11T02:52:53.459Z,11.44
2019-05-11T02:53:31.021Z,11.45
2019-05-11T02:54:07.557Z,11.42
2019-05-11T02:54:44.098Z,11.41
2019-05-11T02:55:19.722Z,11.45
2019-05-11T02:55:55.756Z,11.50
2019-05-11T02:56:31.396Z,11.50
2019-05-11T02:57:07.465Z,11.49
2019-05-11T02:57:43.082Z,11.47
2019-05-11T02:58:18.575Z,11.46
2019-05-11T02:58:54.534Z,11.41
2019-05-11T02:59:30.493Z,11.38
2019-05-11T03:00:08.376Z,11.38
2019-05-11T03:00:45.056Z,11.37
2019-05-11T03:01:20.897Z,11.42
2019-05-11T03:01:56.610Z,11.44
2019-05-11T03:02:32.662Z,11.42
2019-05-11T03:03:08.348Z,11.31
2019-05-11T03:03:43.985Z,11.33
2019-05-11T03:04:20.733Z,11.34
2019-05-11T03:04:57.120Z,11.34
2019-05-11T03:05:32.575Z,11.33
2019-05-11T03:06:08.214Z,11.31
2019-05-11T03:06:43.838Z,11.31
2019-05-11T03:07:19.866Z,11.28
2019-05-11T03:07:55.732Z,11.34
2019-05-11T03:08:31.413Z,11.36
2019-05-11T03:09:07.940Z,11.37
2019-05-11T03:09:43.928Z,11.36
2019-05-11T03:10:19.456Z,11.38
2019-05-11T03:10:55.165Z,11.28
2019-05-11T03:11:30.822Z,11.38
2019-05-11T03:12:06.442Z,11.29
2019-05-11T03:12:41.874Z,11.29
2019-05-11T03:13:17.855Z,11.29
2019-05-11T03:13:54.829Z,11.30
2019-05-11T03:14:30.510Z,11.31
2019-05-11T03:15:06.721Z,11.25
2019-05-11T03:15:42.350Z,11.26
2019-05-11T03:16:18.475Z,11.25
2019-05-11T03:17:10.817Z,11.32
2019-05-11T03:17:46.490Z,11.32
2019-05-11T03:18:22.432Z,11.28
2019-05-11T03:18:58.537Z,11.35
2019-05-11T03:19:34.120Z,11.44
2019-05-11T03:20:09.886Z,11.43
2019-05-11T03:20:45.918Z,11.36
2019-05-11T03:21:21.611Z,11.39
2019-05-11T03:21:57.628Z,11.37
2019-05-11T03:22:33.614Z,11.36
2019-05-11T03:23:09.585Z,11.34
2019-05-11T03:23:45.500Z,11.32
2019-05-11T03:24:24.036Z,11.36
2019-05-11T03:24:58.393Z,11.39
2019-05-11T03:25:34.476Z,11.44
2019-05-11T03:26:10.434Z,11.40
2019-05-11T03:26:46.277Z,11.42
2019-05-11T03:27:21.966Z,11.45
2019-05-11T03:27:57.578Z,11.45
2019-05-11T03:28:33.217Z,11.49
2019-05-11T03:29:08.916Z,11.51
2019-05-11T03:29:45.191Z,11.47
2019-05-11T03:30:20.902Z,11.47
2019-05-11T03:30:56.766Z,11.44
2019-05-11T03:31:32.298Z,11.55
2019-05-11T03:32:08.377Z,11.48
2019-05-11T03:32:43.957Z,11.49
2019-05-11T03:33:19.651Z,11.65
2019-05-11T03:33:55.581Z,11.70
2019-05-11T03:34:31.369Z,11.63
2019-05-11T03:35:07.805Z,11.79
2019-05-11T03:35:43.444Z,11.78
2019-05-11T03:36:19.312Z,11.69
2019-05-11T03:36:55.019Z,11.62
2019-05-11T03:37:30.670Z,11.67
2019-05-11T03:38:06.295Z,11.60
2019-05-11T03:38:41.777Z,11.50
2019-05-11T03:39:17.433Z,11.42
2019-05-11T03:39:53.393Z,11.48
2019-05-11T03:40:29.027Z,11.51
2019-05-11T03:41:05.034Z,11.59
2019-05-11T03:41:41.010Z,11.43
2019-05-11T03:42:16.733Z,11.37
2019-05-11T03:42:52.393Z,11.58
2019-05-11T03:43:28.214Z,11.64
2019-05-11T03:44:03.890Z,11.73
2019-05-11T03:44:39.499Z,11.63
2019-05-11T03:45:15.343Z,11.49
2019-05-11T03:45:51.373Z,11.53
2019-05-11T03:46:27.863Z,11.50
2019-05-11T03:47:03.523Z,11.47
2019-05-11T03:47:39.188Z,11.44
2019-05-11T03:48:14.701Z,11.36
2019-05-11T03:48:50.426Z,11.36
2019-05-11T03:49:26.122Z,11.56
2019-05-11T03:50:02.109Z,11.56
2019-05-11T03:50:37.635Z,11.42
2019-05-11T03:51:13.600Z,11.41
2019-05-11T03:51:49.281Z,11.36
2019-05-11T03:52:25.275Z,11.32
2019-05-11T03:53:01.174Z,11.35
2019-05-11T03:53:37.163Z,11.30
2019-05-11T03:54:13.168Z,11.30
2019-05-11T03:54:49.361Z,11.33
2019-05-11T03:55:25.305Z,11.43
2019-05-11T03:56:00.895Z,11.38
2019-05-11T03:56:36.559Z,11.39
2019-05-11T03:57:12.675Z,11.44
2019-05-11T03:57:48.158Z,11.40
2019-05-11T03:58:26.196Z,11.36
2019-05-11T03:59:01.226Z,11.34
2019-05-11T03:59:36.909Z,11.49
2019-05-11T04:00:13.082Z,11.45
2019-05-11T04:00:49.174Z,11.43
2019-05-11T04:01:24.925Z,11.38
2019-05-11T04:02:00.576Z,11.36
2019-05-11T04:02:36.029Z,11.36
2019-05-11T04:03:11.701Z,11.32
2019-05-11T04:03:47.405Z,11.27
2019-05-11T04:04:23.388Z,11.31
2019-05-11T04:04:59.265Z,11.33
2019-05-11T04:05:34.883Z,11.33
2019-05-11T04:06:10.533Z,11.40
2019-05-11T04:06:46.144Z,11.39
2019-05-11T04:07:21.764Z,11.39
2019-05-11T04:07:57.711Z,11.31
2019-05-11T04:08:33.346Z,11.51
2019-05-11T04:09:09.396Z,11.42
2019-05-11T04:09:44.837Z,11.36
2019-05-11T04:10:24.924Z,11.39
2019-05-11T04:10:58.032Z,11.39
2019-05-11T04:11:33.681Z,11.36
2019-05-11T04:12:09.113Z,11.34
2019-05-11T04:12:45.105Z,11.34
2019-05-11T04:13:21.179Z,11.23
2019-05-11T04:13:56.825Z,11.23
2019-05-11T04:14:32.767Z,11.23
2019-05-11T04:15:08.497Z,11.25
2019-05-11T04:15:44.516Z,11.13
2019-05-11T04:16:20.275Z,11.22
2019-05-11T04:16:55.769Z,11.14
2019-05-11T04:17:31.722Z,11.18
2019-05-11T04:18:07.479Z,11.19
2019-05-11T04:18:43.103Z,11.17
2019-05-11T04:19:18.599Z,11.10
2019-05-11T04:19:54.255Z,11.07
2019-05-11T04:20:29.908Z,11.07
2019-05-11T04:21:05.574Z,11.06
2019-05-11T04:21:41.841Z,11.06
2019-05-11T04:22:17.512Z,11.19
2019-05-11T04:22:53.630Z,11.29
2019-05-11T04:23:29.341Z,11.35
2019-05-11T04:24:04.823Z,11.40
2019-05-11T04:24:40.823Z,11.49
2019-05-11T04:25:16.454Z,11.37
2019-05-11T04:25:52.139Z,11.37
2019-05-11T04:26:27.631Z,11.38
2019-05-11T04:27:03.714Z,11.33
2019-05-11T04:27:39.382Z,11.34
2019-05-11T04:28:15.019Z,11.35
2019-05-11T04:28:51.008Z,11.27
2019-05-11T04:29:27.103Z,11.24
2019-05-11T04:30:02.747Z,11.35
2019-05-11T04:30:38.414Z,11.35
2019-05-11T04:31:13.866Z,11.40
2019-05-11T04:31:49.612Z,10.98
2019-05-11T04:32:25.357Z,10.98
2019-05-11T04:33:01.540Z,11.06
2019-05-11T04:33:37.344Z,11.33
2019-05-11T04:34:13.490Z,11.34
2019-05-11T04:34:50.884Z,11.34
2019-05-11T04:35:26.584Z,11.30
2019-05-11T04:36:02.063Z,11.25
2019-05-11T04:36:37.705Z,11.19
2019-05-11T04:37:13.344Z,11.16
2019-05-11T04:37:49.039Z,11.26
2019-05-11T04:38:24.575Z,11.40
2019-05-11T04:39:00.246Z,11.33
2019-05-11T04:39:36.002Z,11.35
2019-05-11T04:40:12.028Z,11.30
2019-05-11T04:40:47.520Z,11.28
2019-05-11T04:41:23.221Z,11.27
2019-05-11T04:41:58.875Z,11.23
2019-05-11T04:42:53.256Z,11.35
2019-05-11T04:43:12.222Z,11.36
2019-05-11T04:43:47.967Z,11.27
2019-05-11T04:44:23.706Z,11.32
2019-05-11T04:44:59.344Z,11.27
2019-05-11T04:45:34.797Z,11.22
2019-05-11T04:46:10.509Z,11.29
2019-05-11T04:46:46.207Z,11.24
2019-05-11T04:47:21.929Z,11.22
2019-05-11T04:47:57.409Z,11.19
2019-05-11T04:48:33.032Z,11.21
2019-05-11T04:49:08.658Z,11.22
2019-05-11T04:49:44.841Z,11.29
2019-05-11T04:50:20.462Z,11.32
2019-05-11T04:50:56.155Z,11.28
2019-05-11T04:51:31.891Z,11.26
2019-05-11T04:52:07.549Z,11.26
2019-05-11T04:52:43.062Z,10.98
2019-05-11T04:53:18.914Z,11.35
2019-05-11T04:53:54.556Z,11.35
2019-05-11T04:54:30.193Z,11.27
2019-05-11T04:55:05.781Z,11.27
2019-05-11T04:55:41.410Z,11.30
2019-05-11T04:56:17.180Z,11.21
2019-05-11T04:56:52.878Z,11.25
2019-05-11T04:57:28.376Z,11.25
2019-05-11T04:58:04.372Z,11.22
2019-05-11T04:58:40.333Z,11.22
2019-05-11T04:59:16.009Z,11.21
2019-05-11T04:59:51.777Z,11.18
2019-05-11T05:00:27.474Z,11.17
2019-05-11T05:01:03.461Z,11.14
2019-05-11T05:01:39.097Z,11.16
2019-05-11T05:02:14.548Z,11.18
2019-05-11T05:02:50.233Z,11.11
2019-05-11T05:03:39.740Z,11.16
2019-05-11T05:04:13.400Z,11.20
2019-05-11T05:04:40.377Z,11.20
2019-05-11T05:05:16.171Z,11.16
2019-05-11T05:05:51.890Z,11.21
2019-05-11T05:06:28.027Z,11.23
2019-05-11T05:07:05.380Z,11.17
2019-05-11T05:07:48.089Z,11.23
2019-05-11T05:08:21.067Z,11.43
2019-05-11T05:08:58.232Z,11.44
2019-05-11T05:09:36.051Z,11.33
2019-05-11T05:10:13.955Z,11.32
2019-05-11T05:10:52.613Z,11.27
2019-05-11T05:11:30.427Z,11.28
2019-05-11T05:12:08.462Z,11.30
2019-05-11T05:12:50.794Z,11.31
2019-05-11T05:13:23.452Z,11.28
2019-05-11T05:14:02.208Z,11.28
2019-05-11T05:14:33.771Z,11.29
2019-05-11T05:15:09.658Z,11.24
2019-05-11T05:15:45.679Z,11.29
2019-05-11T05:16:21.795Z,11.23
2019-05-11T05:16:57.379Z,11.22
2019-05-11T05:17:33.098Z,11.19
2019-05-11T05:18:09.104Z,11.19
2019-05-11T05:18:44.790Z,11.26
2019-05-11T05:19:20.841Z,11.28
2019-05-11T05:19:56.642Z,11.26
2019-05-11T05:20:32.325Z,11.25
2019-05-11T05:21:08.343Z,11.25
2019-05-11T05:21:43.835Z,11.27
2019-05-11T05:22:19.595Z,11.32
2019-05-11T05:22:55.650Z,11.28
2019-05-11T05:23:31.661Z,11.26
2019-05-11T05:24:07.135Z,11.26
2019-05-11T05:24:43.179Z,11.30
2019-05-11T05:25:19.372Z,11.30
2019-05-11T05:25:55.513Z,11.28
2019-05-11T05:26:31.755Z,11.26
2019-05-11T05:27:07.397Z,11.33
2019-05-11T05:27:43.714Z,11.34
2019-05-11T05:28:19.395Z,11.37
2019-05-11T05:28:54.921Z,11.44
2019-05-11T05:29:30.571Z,11.54
2019-05-11T05:30:06.863Z,11.45
2019-05-11T05:30:42.702Z,11.38
2019-05-11T05:31:18.502Z,11.39
2019-05-11T05:31:55.007Z,11.45
2019-05-11T05:32:31.819Z,11.43
2019-05-11T05:33:07.460Z,11.57
2019-05-11T05:33:42.907Z,11.69
2019-05-11T05:34:18.615Z,11.58
2019-05-11T05:34:54.749Z,11.55
2019-05-11T05:35:30.457Z,11.57
2019-05-11T05:36:05.923Z,11.62
2019-05-11T05:36:41.975Z,11.55
2019-05-11T05:37:18.116Z,11.50
2019-05-11T05:37:54.105Z,11.60
2019-05-11T05:38:29.609Z,11.75
2019-05-11T05:39:08.891Z,11.75
2019-05-11T05:39:45.212Z,11.75
2019-05-11T05:40:21.587Z,11.69
2019-05-11T05:40:57.495Z,11.94
2019-05-11T05:41:33.141Z,11.94
2019-05-11T05:42:08.788Z,11.82
2019-05-11T05:42:45.408Z,11.82
2019-05-11T05:43:27.257Z,11.76
2019-05-11T05:43:58.443Z,11.68
2019-05-11T05:44:34.111Z,11.68
2019-05-11T05:45:10.139Z,11.68
2019-05-11T05:45:46.179Z,11.77
2019-05-11T05:46:21.993Z,11.89
2019-05-11T05:46:58.173Z,11.82
2019-05-11T05:47:34.283Z,11.83
2019-05-11T05:48:09.766Z,11.74
2019-05-11T05:48:45.920Z,11.78
2019-05-11T05:49:21.726Z,11.73
2019-05-11T05:49:57.405Z,11.59
2019-05-11T05:50:33.239Z,11.56
2019-05-11T05:51:09.236Z,11.50
2019-05-11T05:51:44.887Z,11.51
2019-05-11T05:52:21.159Z,11.47
2019-05-11T05:52:57.639Z,11.37
2019-05-11T05:53:33.302Z,11.48
2019-05-11T05:54:08.949Z,11.38
2019-05-11T05:54:44.921Z,11.44
2019-05-11T05:55:20.864Z,11.43
2019-05-11T05:55:57.495Z,11.48
2019-05-11T05:56:33.268Z,11.48
2019-05-11T05:57:09.574Z,11.47
2019-05-11T05:57:45.079Z,11.68
2019-05-11T05:58:21.048Z,11.73
2019-05-11T05:58:56.871Z,11.61
2019-05-11T05:59:32.762Z,11.61
2019-05-11T06:00:09.095Z,11.58
2019-05-11T06:00:44.754Z,11.68
2019-05-11T06:01:20.793Z,11.72
2019-05-11T06:01:56.983Z,11.81
2019-05-11T06:02:34.363Z,11.80
2019-05-11T06:03:09.997Z,11.84
2019-05-11T06:03:46.004Z,11.77
2019-05-11T06:04:21.666Z,11.77
2019-05-11T06:04:57.156Z,11.65
2019-05-11T06:05:32.883Z,11.91
2019-05-11T06:06:08.897Z,11.92
2019-05-11T06:06:44.957Z,11.94
2019-05-11T06:07:21.165Z,12.15
2019-05-11T06:07:57.512Z,12.02
2019-05-11T06:08:33.179Z,12.07
2019-05-11T06:09:08.840Z,12.00
2019-05-11T06:09:44.285Z,11.91
2019-05-11T06:10:19.978Z,11.92
2019-05-11T06:10:55.757Z,11.95
2019-05-11T06:11:31.405Z,11.82
2019-05-11T06:12:06.880Z,11.82
2019-05-11T06:12:42.535Z,11.83
2019-05-11T06:13:18.217Z,11.81
2019-05-11T06:13:53.978Z,11.85
2019-05-11T06:14:29.435Z,11.82
2019-05-11T06:15:05.624Z,11.82
2019-05-11T06:15:41.628Z,11.89
2019-05-11T06:16:17.599Z,11.98
2019-05-11T06:16:53.191Z,11.96
2019-05-11T06:17:29.171Z,11.94
2019-05-11T06:18:05.126Z,11.91
2019-05-11T06:18:41.049Z,11.84
2019-05-11T06:19:16.593Z,11.94
2019-05-11T06:19:52.324Z,11.95
2019-05-11T06:20:28.005Z,11.98
2019-05-11T06:21:03.676Z,12.01
2019-05-11T06:21:39.458Z,12.01
2019-05-11T06:22:15.099Z,12.16
2019-05-11T06:22:50.803Z,12.08
2019-05-11T06:23:27.709Z,12.09
2019-05-11T06:24:06.795Z,12.18
2019-05-11T06:24:41.193Z,12.14
2019-05-11T06:25:16.965Z,12.01
2019-05-11T06:25:52.742Z,12.01
2019-05-11T06:26:28.228Z,12.05
2019-05-11T06:27:04.225Z,11.99
2019-05-11T06:27:40.915Z,12.08
2019-05-11T06:28:17.011Z,12.08
2019-05-11T06:28:53.323Z,12.08
2019-05-11T06:29:29.098Z,12.08
2019-05-11T06:30:05.086Z,12.11
2019-05-11T06:30:41.010Z,12.16
2019-05-11T06:31:17.200Z,12.25
2019-05-11T06:31:53.744Z,12.25
2019-05-11T06:32:29.695Z,12.27
2019-05-11T06:33:05.811Z,12.33
2019-05-11T06:33:41.385Z,12.32
2019-05-11T06:34:17.389Z,12.32
2019-05-11T06:34:53.097Z,12.36
2019-05-11T06:35:29.357Z,12.35
2019-05-11T06:36:05.121Z,12.35
2019-05-11T06:36:41.483Z,12.36
2019-05-11T06:37:17.150Z,12.37
2019-05-11T06:37:52.974Z,12.38
2019-05-11T06:38:28.821Z,12.44
2019-05-11T06:39:07.715Z,12.39
2019-05-11T06:39:43.390Z,12.34
2019-05-11T06:40:19.932Z,12.33
2019-05-11T06:40:55.595Z,12.32
2019-05-11T06:41:31.839Z,12.36
2019-05-11T06:42:07.963Z,12.32
2019-05-11T06:42:43.599Z,12.31
2019-05-11T06:43:19.084Z,12.30
2019-05-11T06:44:01.988Z,12.36
2019-05-11T06:44:33.795Z,12.48
2019-05-11T06:45:10.566Z,12.49
2019-05-11T06:45:46.140Z,12.41
2019-05-11T06:46:21.969Z,12.43
2019-05-11T06:46:57.782Z,12.40
2019-05-11T06:47:34.343Z,12.38
2019-05-11T06:48:09.918Z,12.32
2019-05-11T06:48:46.176Z,12.36
2019-05-11T06:49:22.536Z,12.43
2019-05-11T06:49:58.210Z,12.43
2019-05-11T06:50:33.661Z,12.42
2019-05-11T06:51:10.030Z,12.39
2019-05-11T06:51:45.754Z,12.46
2019-05-11T06:52:21.963Z,12.49
2019-05-11T06:52:57.604Z,12.36
2019-05-11T06:53:33.622Z,12.37
2019-05-11T06:54:09.269Z,12.31
2019-05-11T06:54:44.989Z,12.34
2019-05-11T06:55:20.985Z,12.28
2019-05-11T06:55:57.368Z,12.29
2019-05-11T06:56:33.311Z,12.25
2019-05-11T06:57:09.347Z,12.41
2019-05-11T06:57:45.774Z,12.39
2019-05-11T06:58:22.030Z,12.35
2019-05-11T06:58:58.202Z,12.23
2019-05-11T06:59:34.437Z,12.27
2019-05-11T07:00:10.395Z,12.21
2019-05-11T07:00:46.651Z,12.25
2019-05-11T07:01:22.393Z,12.23
2019-05-11T07:01:59.550Z,12.19
2019-05-11T07:02:35.359Z,12.25
2019-05-11T07:03:10.986Z,12.24
2019-05-11T07:03:46.640Z,12.31
2019-05-11T07:04:22.354Z,12.42
2019-05-11T07:04:58.642Z,12.45
2019-05-11T07:05:34.594Z,12.50
2019-05-11T07:06:10.334Z,12.56
2019-05-11T07:06:46.992Z,12.62
2019-05-11T07:07:22.857Z,12.71
2019-05-11T07:07:59.254Z,12.65
2019-05-11T07:08:34.904Z,12.59
2019-05-11T07:09:11.181Z,12.62
2019-05-11T07:09:46.778Z,12.64
2019-05-11T07:10:22.791Z,12.60
2019-05-11T07:10:59.007Z,12.51
2019-05-11T07:11:34.712Z,12.47
2019-05-11T07:12:10.696Z,12.48
2019-05-11T07:12:46.934Z,12.50
2019-05-11T07:13:22.607Z,12.53
2019-05-11T07:13:58.350Z,12.45
2019-05-11T07:14:34.759Z,12.46
2019-05-11T07:15:11.380Z,12.46
2019-05-11T07:15:47.629Z,12.45
2019-05-11T07:16:23.433Z,12.46
2019-05-11T07:16:59.395Z,12.46
2019-05-11T07:17:35.409Z,12.50
2019-05-11T07:18:11.390Z,12.63
2019-05-11T07:18:48.081Z,12.65
2019-05-11T07:19:23.958Z,12.64
2019-05-11T07:20:00.250Z,12.64
2019-05-11T07:20:49.577Z,12.65
2019-05-11T07:21:13.207Z,12.66
2019-05-11T07:21:49.125Z,12.61
2019-05-11T07:22:25.170Z,12.55
2019-05-11T07:23:01.770Z,12.49
2019-05-11T07:23:37.970Z,12.51
2019-05-11T07:24:13.415Z,12.50
2019-05-11T07:24:49.558Z,12.53
2019-05-11T07:25:25.243Z,12.48
2019-05-11T07:26:01.297Z,12.41
2019-05-11T07:26:36.807Z,12.34
2019-05-11T07:27:12.699Z,12.29
2019-05-11T07:27:49.208Z,12.29
2019-05-11T07:28:24.884Z,12.29
2019-05-11T07:29:00.970Z,12.29
2019-05-11T07:29:37.233Z,12.31
2019-05-11T07:30:13.573Z,12.26
2019-05-11T07:30:50.310Z,12.30
2019-05-11T07:31:25.769Z,12.41
2019-05-11T07:32:12.192Z,12.31
2019-05-11T07:32:39.794Z,12.43
2019-05-11T07:33:18.150Z,12.38
2019-05-11T07:33:53.328Z,12.41
2019-05-11T07:34:30.049Z,12.41
2019-05-11T07:35:08.421Z,12.40
2019-05-11T07:35:44.354Z,12.41
2019-05-11T07:36:20.323Z,12.44
2019-05-11T07:36:57.717Z,12.40
2019-05-11T07:37:34.352Z,12.49
2019-05-11T07:38:10.259Z,12.34
2019-05-11T07:38:46.003Z,12.30
2019-05-11T07:39:21.705Z,12.35
2019-05-11T07:39:58.358Z,12.34
2019-05-11T07:40:34.875Z,12.40
2019-05-11T07:41:10.353Z,12.31
2019-05-11T07:41:47.855Z,12.29
2019-05-11T07:42:23.801Z,12.26
2019-05-11T07:42:59.484Z,12.23
2019-05-11T07:43:37.848Z,12.29
2019-05-11T07:44:12.665Z,12.27